sensor_id;sensor_type;location;lat;lon;timestamp;pressure;altitude;pressure_sealevel;temperature;humidity
31595;BME280;18200;48.726;8.892;2024-03-02T00:02:17;95591.38;;;17.77;39.04
31595;BME280;18200;48.726;8.892;2024-03-02T00:06:20;95594.16;;;17.74;38.83
31595;BME280;18200;48.726;8.892;2024-03-02T00:10:23;95595.38;;;17.73;39.35
31595;BME280;18200;48.726;8.892;2024-03-02T00:14:29;95594.72;;;17.69;39.75
31595;BME280;18200;48.726;8.892;2024-03-02T00:18:31;95592.59;;;17.89;39.69
31595;BME280;18200;48.726;8.892;2024-03-02T00:22:35;95589.34;;;17.94;39.45
31595;BME280;18200;48.726;8.892;2024-03-02T00:26:37;95580.88;;;17.92;39.96
31595;BME280;18200;48.726;8.892;2024-03-02T00:34:44;95582.81;;;17.92;39.47
31595;BME280;18200;48.726;8.892;2024-03-02T00:38:51;95579.50;;;18.13;38.99
31595;BME280;18200;48.726;8.892;2024-03-02T00:42:55;95586.00;;;17.74;40.08
31595;BME280;18200;48.726;8.892;2024-03-02T00:46:56;95583.31;;;18.15;39.54
31595;BME280;18200;48.726;8.892;2024-03-02T00:50:57;95585.56;;;18.45;38.86
31595;BME280;18200;48.726;8.892;2024-03-02T00:54:57;95582.66;;;18.11;39.16
31595;BME280;18200;48.726;8.892;2024-03-02T00:58:57;95576.59;;;18.32;38.46
31595;BME280;18200;48.726;8.892;2024-03-02T01:02:58;95575.59;;;18.26;39.34
31595;BME280;18200;48.726;8.892;2024-03-02T01:06:58;95580.78;;;18.08;39.23
31595;BME280;18200;48.726;8.892;2024-03-02T01:10:58;95595.28;;;18.30;39.33
31595;BME280;18200;48.726;8.892;2024-03-02T01:14:59;95585.59;;;18.17;39.30
31595;BME280;18200;48.726;8.892;2024-03-02T01:18:59;95589.19;;;18.26;39.16
31595;BME280;18200;48.726;8.892;2024-03-02T01:22:59;95592.91;;;18.32;39.04
31595;BME280;18200;48.726;8.892;2024-03-02T01:27:00;95591.47;;;18.28;39.23
31595;BME280;18200;48.726;8.892;2024-03-02T01:31:00;95579.78;;;18.69;38.32
31595;BME280;18200;48.726;8.892;2024-03-02T01:35:02;95582.38;;;17.93;39.13
31595;BME280;18200;48.726;8.892;2024-03-02T01:39:02;95574.28;;;18.06;38.45
31595;BME280;18200;48.726;8.892;2024-03-02T01:43:06;95573.97;;;18.29;38.75
31595;BME280;18200;48.726;8.892;2024-03-02T01:47:07;95569.06;;;17.70;39.80
31595;BME280;18200;48.726;8.892;2024-03-02T01:51:08;95571.78;;;18.11;39.02
31595;BME280;18200;48.726;8.892;2024-03-02T01:55:08;95578.44;;;17.81;38.81
31595;BME280;18200;48.726;8.892;2024-03-02T01:59:12;95580.44;;;18.06;38.74
31595;BME280;18200;48.726;8.892;2024-03-02T02:03:14;95581.53;;;17.96;38.90
31595;BME280;18200;48.726;8.892;2024-03-02T02:07:14;95562.38;;;17.87;38.13
31595;BME280;18200;48.726;8.892;2024-03-02T02:11:15;95572.84;;;17.60;38.78
31595;BME280;18200;48.726;8.892;2024-03-02T02:19:27;95583.72;;;17.44;39.44
31595;BME280;18200;48.726;8.892;2024-03-02T02:23:27;95571.16;;;17.50;39.15
31595;BME280;18200;48.726;8.892;2024-03-02T02:27:27;95567.25;;;17.51;39.38
31595;BME280;18200;48.726;8.892;2024-03-02T02:31:37;95567.34;;;16.86;39.28
31595;BME280;18200;48.726;8.892;2024-03-02T02:35:37;95558.50;;;16.98;40.07
31595;BME280;18200;48.726;8.892;2024-03-02T02:39:38;95556.47;;;17.02;40.13
31595;BME280;18200;48.726;8.892;2024-03-02T02:43:38;95550.03;;;16.96;39.14
31595;BME280;18200;48.726;8.892;2024-03-02T02:47:43;95547.16;;;16.87;39.92
31595;BME280;18200;48.726;8.892;2024-03-02T02:51:44;95551.13;;;16.83;39.73
31595;BME280;18200;48.726;8.892;2024-03-02T02:55:44;95559.88;;;16.74;40.07
31595;BME280;18200;48.726;8.892;2024-03-02T02:59:45;95558.59;;;16.63;40.71
31595;BME280;18200;48.726;8.892;2024-03-02T03:03:45;95549.16;;;16.35;39.56
31595;BME280;18200;48.726;8.892;2024-03-02T03:07:46;95550.50;;;16.43;39.79
31595;BME280;18200;48.726;8.892;2024-03-02T03:11:48;95545.47;;;16.25;40.55
31595;BME280;18200;48.726;8.892;2024-03-02T03:15:48;95552.09;;;16.41;40.12
31595;BME280;18200;48.726;8.892;2024-03-02T03:19:49;95548.28;;;16.38;40.29
31595;BME280;18200;48.726;8.892;2024-03-02T03:23:50;95537.69;;;16.27;40.05
31595;BME280;18200;48.726;8.892;2024-03-02T03:27:50;95554.03;;;15.69;40.04
31595;BME280;18200;48.726;8.892;2024-03-02T03:31:52;95559.06;;;16.06;39.93
31595;BME280;18200;48.726;8.892;2024-03-02T03:35:53;95555.19;;;16.07;40.39
31595;BME280;18200;48.726;8.892;2024-03-02T03:39:53;95554.19;;;16.17;39.85
31595;BME280;18200;48.726;8.892;2024-03-02T03:43:53;95550.31;;;16.18;39.36
31595;BME280;18200;48.726;8.892;2024-03-02T03:47:54;95549.13;;;15.99;39.49
31595;BME280;18200;48.726;8.892;2024-03-02T03:51:56;95551.97;;;15.33;40.86
31595;BME280;18200;48.726;8.892;2024-03-02T03:55:56;95547.38;;;15.53;40.92
31595;BME280;18200;48.726;8.892;2024-03-02T03:59:56;95547.97;;;15.41;40.22
31595;BME280;18200;48.726;8.892;2024-03-02T04:03:57;95547.88;;;15.25;39.90
31595;BME280;18200;48.726;8.892;2024-03-02T04:07:58;95556.25;;;15.11;40.82
31595;BME280;18200;48.726;8.892;2024-03-02T04:11:58;95558.47;;;15.16;40.37
31595;BME280;18200;48.726;8.892;2024-03-02T04:15:58;95555.94;;;15.29;40.26
31595;BME280;18200;48.726;8.892;2024-03-02T04:19:59;95551.06;;;14.74;40.87
31595;BME280;18200;48.726;8.892;2024-03-02T04:24:00;95554.72;;;14.64;41.57
31595;BME280;18200;48.726;8.892;2024-03-02T04:28:00;95556.47;;;14.97;41.95
31595;BME280;18200;48.726;8.892;2024-03-02T04:32:01;95557.63;;;15.19;41.35
31595;BME280;18200;48.726;8.892;2024-03-02T04:36:01;95554.50;;;15.01;41.57
31595;BME280;18200;48.726;8.892;2024-03-02T04:40:02;95554.38;;;14.85;41.98
31595;BME280;18200;48.726;8.892;2024-03-02T04:44:02;95558.00;;;14.98;41.79
31595;BME280;18200;48.726;8.892;2024-03-02T04:48:02;95552.72;;;14.91;41.73
31595;BME280;18200;48.726;8.892;2024-03-02T04:52:03;95553.31;;;14.56;41.42
31595;BME280;18200;48.726;8.892;2024-03-02T04:56:04;95550.53;;;14.83;41.49
31595;BME280;18200;48.726;8.892;2024-03-02T05:00:22;95562.47;;;14.62;40.87
31595;BME280;18200;48.726;8.892;2024-03-02T05:04:23;95557.50;;;14.03;42.30
31595;BME280;18200;48.726;8.892;2024-03-02T05:08:23;95561.53;;;13.88;42.12
31595;BME280;18200;48.726;8.892;2024-03-02T05:12:23;95562.50;;;14.05;41.83
31595;BME280;18200;48.726;8.892;2024-03-02T05:16:42;95570.91;;;14.11;42.11
31595;BME280;18200;48.726;8.892;2024-03-02T05:20:42;95566.22;;;14.15;42.03
31595;BME280;18200;48.726;8.892;2024-03-02T05:24:43;95569.72;;;13.51;43.28
31595;BME280;18200;48.726;8.892;2024-03-02T05:28:43;95576.47;;;13.66;42.66
31595;BME280;18200;48.726;8.892;2024-03-02T05:32:43;95573.38;;;13.98;42.71
31595;BME280;18200;48.726;8.892;2024-03-02T05:36:44;95582.19;;;13.38;42.40
31595;BME280;18200;48.726;8.892;2024-03-02T05:40:44;95582.81;;;13.12;43.82
31595;BME280;18200;48.726;8.892;2024-03-02T05:44:45;95588.88;;;13.23;43.98
31595;BME280;18200;48.726;8.892;2024-03-02T05:48:45;95582.16;;;13.01;44.38
31595;BME280;18200;48.726;8.892;2024-03-02T05:52:45;95596.97;;;12.79;45.55
31595;BME280;18200;48.726;8.892;2024-03-02T05:56:46;95585.53;;;12.61;46.40
31595;BME280;18200;48.726;8.892;2024-03-02T06:00:47;95579.53;;;13.35;44.49
31595;BME280;18200;48.726;8.892;2024-03-02T06:04:47;95575.44;;;12.72;46.44
31595;BME280;18200;48.726;8.892;2024-03-02T06:08:48;95585.22;;;12.99;45.60
31595;BME280;18200;48.726;8.892;2024-03-02T06:12:48;95584.72;;;12.71;45.99
31595;BME280;18200;48.726;8.892;2024-03-02T06:16:49;95587.94;;;13.44;46.45
31595;BME280;18200;48.726;8.892;2024-03-02T06:20:49;95591.50;;;13.67;45.08
31595;BME280;18200;48.726;8.892;2024-03-02T06:24:50;95606.31;;;13.52;44.36
31595;BME280;18200;48.726;8.892;2024-03-02T06:28:50;95603.09;;;13.27;44.83
31595;BME280;18200;48.726;8.892;2024-03-02T06:32:51;95601.75;;;12.57;46.37
31595;BME280;18200;48.726;8.892;2024-03-02T06:36:51;95600.44;;;12.76;45.28
31595;BME280;18200;48.726;8.892;2024-03-02T06:40:51;95600.97;;;11.91;46.78
31595;BME280;18200;48.726;8.892;2024-03-02T06:44:52;95594.53;;;12.91;46.00
31595;BME280;18200;48.726;8.892;2024-03-02T06:48:52;95590.09;;;12.71;45.86
31595;BME280;18200;48.726;8.892;2024-03-02T06:52:52;95593.16;;;12.73;46.36
31595;BME280;18200;48.726;8.892;2024-03-02T06:56:53;95597.13;;;13.46;46.47
31595;BME280;18200;48.726;8.892;2024-03-02T07:00:53;95596.22;;;13.60;46.33
31595;BME280;18200;48.726;8.892;2024-03-02T07:04:54;95595.66;;;14.06;45.28
31595;BME280;18200;48.726;8.892;2024-03-02T07:08:54;95603.31;;;14.11;45.19
31595;BME280;18200;48.726;8.892;2024-03-02T07:12:54;95598.94;;;14.50;44.97
31595;BME280;18200;48.726;8.892;2024-03-02T07:16:55;95600.56;;;14.44;45.16
31595;BME280;18200;48.726;8.892;2024-03-02T07:20:55;95603.41;;;14.03;44.35
31595;BME280;18200;48.726;8.892;2024-03-02T07:24:58;95603.94;;;14.22;44.50
31595;BME280;18200;48.726;8.892;2024-03-02T07:28:58;95598.50;;;14.25;44.77
31595;BME280;18200;48.726;8.892;2024-03-02T07:32:59;95610.31;;;14.38;44.43
31595;BME280;18200;48.726;8.892;2024-03-02T07:37:00;95601.72;;;14.70;44.37
31595;BME280;18200;48.726;8.892;2024-03-02T07:41:00;95606.25;;;15.03;43.98
31595;BME280;18200;48.726;8.892;2024-03-02T07:45:01;95609.22;;;15.09;44.47
31595;BME280;18200;48.726;8.892;2024-03-02T07:49:01;95606.75;;;14.45;44.09
31595;BME280;18200;48.726;8.892;2024-03-02T07:53:02;95616.75;;;13.50;46.59
31595;BME280;18200;48.726;8.892;2024-03-02T07:57:02;95612.84;;;14.49;45.20
31595;BME280;18200;48.726;8.892;2024-03-02T08:01:03;95610.56;;;14.97;44.45
31595;BME280;18200;48.726;8.892;2024-03-02T08:05:04;95604.59;;;15.09;44.70
31595;BME280;18200;48.726;8.892;2024-03-02T08:09:04;95608.63;;;15.21;43.81
31595;BME280;18200;48.726;8.892;2024-03-02T08:13:09;95607.63;;;15.58;43.94
31595;BME280;18200;48.726;8.892;2024-03-02T08:17:09;95606.16;;;15.73;44.54
31595;BME280;18200;48.726;8.892;2024-03-02T08:21:12;95596.25;;;16.41;43.20
31595;BME280;18200;48.726;8.892;2024-03-02T08:25:12;95599.19;;;16.66;42.74
31595;BME280;18200;48.726;8.892;2024-03-02T08:29:13;95597.69;;;16.81;42.76
31595;BME280;18200;48.726;8.892;2024-03-02T08:33:13;95597.81;;;17.39;41.68
31595;BME280;18200;48.726;8.892;2024-03-02T08:37:13;95590.66;;;17.45;41.25
31595;BME280;18200;48.726;8.892;2024-03-02T08:41:14;95591.75;;;17.63;41.05
31595;BME280;18200;48.726;8.892;2024-03-02T08:45:16;95603.31;;;18.21;39.74
31595;BME280;18200;48.726;8.892;2024-03-02T08:49:16;95599.34;;;17.40;41.34
31595;BME280;18200;48.726;8.892;2024-03-02T08:53:17;95593.31;;;18.18;39.71
31595;BME280;18200;48.726;8.892;2024-03-02T08:57:18;95577.28;;;19.21;38.87
31595;BME280;18200;48.726;8.892;2024-03-02T09:01:19;95574.47;;;19.24;37.94
31595;BME280;18200;48.726;8.892;2024-03-02T09:05:19;95570.31;;;19.88;35.93
31595;BME280;18200;48.726;8.892;2024-03-02T09:09:20;95566.38;;;20.11;35.92
31595;BME280;18200;48.726;8.892;2024-03-02T09:13:20;95557.41;;;20.63;34.83
31595;BME280;18200;48.726;8.892;2024-03-02T09:17:21;95563.41;;;20.98;33.63
31595;BME280;18200;48.726;8.892;2024-03-02T09:21:21;95559.84;;;21.28;32.87
31595;BME280;18200;48.726;8.892;2024-03-02T09:25:22;95557.56;;;21.08;32.92
31595;BME280;18200;48.726;8.892;2024-03-02T09:29:23;95555.19;;;21.74;32.01
31595;BME280;18200;48.726;8.892;2024-03-02T09:33:23;95556.06;;;22.07;32.00
31595;BME280;18200;48.726;8.892;2024-03-02T09:37:23;95556.06;;;21.61;32.04
31595;BME280;18200;48.726;8.892;2024-03-02T09:41:24;95556.97;;;21.77;31.64
31595;BME280;18200;48.726;8.892;2024-03-02T09:45:26;95554.22;;;21.13;32.28
31595;BME280;18200;48.726;8.892;2024-03-02T09:49:26;95546.41;;;20.36;33.67
31595;BME280;18200;48.726;8.892;2024-03-02T09:53:31;95546.69;;;21.62;31.99
31595;BME280;18200;48.726;8.892;2024-03-02T09:57:31;95555.38;;;22.39;30.81
31595;BME280;18200;48.726;8.892;2024-03-02T10:01:31;95550.75;;;22.63;29.74
31595;BME280;18200;48.726;8.892;2024-03-02T10:05:32;95548.00;;;23.20;29.46
31595;BME280;18200;48.726;8.892;2024-03-02T10:09:32;95543.00;;;23.65;29.03
31595;BME280;18200;48.726;8.892;2024-03-02T10:13:32;95540.88;;;24.13;27.84
31595;BME280;18200;48.726;8.892;2024-03-02T10:17:34;95551.25;;;23.95;27.87
31595;BME280;18200;48.726;8.892;2024-03-02T10:21:35;95549.72;;;23.79;27.86
31595;BME280;18200;48.726;8.892;2024-03-02T10:25:35;95544.06;;;23.97;27.45
31595;BME280;18200;48.726;8.892;2024-03-02T10:29:37;95525.31;;;23.81;28.47
31595;BME280;18200;48.726;8.892;2024-03-02T10:33:39;95530.47;;;24.46;27.67
31595;BME280;18200;48.726;8.892;2024-03-02T10:37:40;95518.38;;;25.08;26.29
31595;BME280;18200;48.726;8.892;2024-03-02T10:41:41;95525.44;;;24.30;26.94
31595;BME280;18200;48.726;8.892;2024-03-02T10:45:42;95523.63;;;23.98;27.84
31595;BME280;18200;48.726;8.892;2024-03-02T10:49:44;95515.88;;;23.82;27.67
31595;BME280;18200;48.726;8.892;2024-03-02T10:53:46;95518.25;;;24.04;27.57
31595;BME280;18200;48.726;8.892;2024-03-02T10:57:54;95511.53;;;24.05;27.08
31595;BME280;18200;48.726;8.892;2024-03-02T11:01:58;95505.09;;;24.22;27.41
31595;BME280;18200;48.726;8.892;2024-03-02T11:05:59;95510.41;;;24.40;27.17
31595;BME280;18200;48.726;8.892;2024-03-02T11:10:01;95500.38;;;25.47;24.88
31595;BME280;18200;48.726;8.892;2024-03-02T11:14:13;95505.13;;;24.72;25.96
31595;BME280;18200;48.726;8.892;2024-03-02T11:18:15;95489.53;;;24.98;25.75
31595;BME280;18200;48.726;8.892;2024-03-02T11:22:15;95479.38;;;25.95;25.10
31595;BME280;18200;48.726;8.892;2024-03-02T11:26:20;95474.06;;;26.80;23.66
31595;BME280;18200;48.726;8.892;2024-03-02T11:34:34;95466.59;;;25.92;25.30
31595;BME280;18200;48.726;8.892;2024-03-02T11:38:35;95469.72;;;25.54;25.07
31595;BME280;18200;48.726;8.892;2024-03-02T11:42:37;95463.91;;;24.72;26.08
31595;BME280;18200;48.726;8.892;2024-03-02T11:46:39;95450.69;;;25.76;25.15
31595;BME280;18200;48.726;8.892;2024-03-02T11:50:59;95443.19;;;27.29;23.18
31595;BME280;18200;48.726;8.892;2024-03-02T11:55:01;95437.16;;;26.72;23.50
31595;BME280;18200;48.726;8.892;2024-03-02T11:59:03;95437.34;;;28.03;22.47
31595;BME280;18200;48.726;8.892;2024-03-02T12:03:08;95436.16;;;26.33;23.94
31595;BME280;18200;48.726;8.892;2024-03-02T12:07:09;95432.25;;;26.45;23.65
31595;BME280;18200;48.726;8.892;2024-03-02T12:11:13;95413.50;;;26.54;23.86
31595;BME280;18200;48.726;8.892;2024-03-02T12:15:13;95421.53;;;27.81;21.83
31595;BME280;18200;48.726;8.892;2024-03-02T12:19:14;95418.22;;;26.43;23.07
31595;BME280;18200;48.726;8.892;2024-03-02T12:23:16;95409.97;;;26.90;23.04
31595;BME280;18200;48.726;8.892;2024-03-02T12:27:17;95411.72;;;28.41;21.90
31595;BME280;18200;48.726;8.892;2024-03-02T12:31:18;95405.19;;;28.22;21.51
31595;BME280;18200;48.726;8.892;2024-03-02T12:35:19;95396.16;;;28.27;21.72
31595;BME280;18200;48.726;8.892;2024-03-02T12:39:19;95391.63;;;28.24;21.52
31595;BME280;18200;48.726;8.892;2024-03-02T12:43:20;95398.31;;;28.84;20.73
31595;BME280;18200;48.726;8.892;2024-03-02T12:47:21;95390.41;;;29.21;20.97
31595;BME280;18200;48.726;8.892;2024-03-02T12:51:21;95386.59;;;29.30;20.99
31595;BME280;18200;48.726;8.892;2024-03-02T12:55:23;95393.78;;;26.67;23.57
31595;BME280;18200;48.726;8.892;2024-03-02T12:59:24;95389.41;;;26.44;23.05
31595;BME280;18200;48.726;8.892;2024-03-02T13:03:28;95379.09;;;28.12;21.47
31595;BME280;18200;48.726;8.892;2024-03-02T13:07:29;95390.44;;;26.09;23.23
31595;BME280;18200;48.726;8.892;2024-03-02T13:11:29;95385.56;;;24.96;25.17
31595;BME280;18200;48.726;8.892;2024-03-02T13:15:32;95389.00;;;25.57;24.32
31595;BME280;18200;48.726;8.892;2024-03-02T13:19:33;95391.19;;;25.07;24.76
31595;BME280;18200;48.726;8.892;2024-03-02T13:23:34;95388.81;;;25.97;23.99
31595;BME280;18200;48.726;8.892;2024-03-02T13:27:35;95387.41;;;25.05;25.31
31595;BME280;18200;48.726;8.892;2024-03-02T13:31:35;95383.34;;;26.34;24.00
31595;BME280;18200;48.726;8.892;2024-03-02T13:35:35;95377.59;;;26.38;23.44
31595;BME280;18200;48.726;8.892;2024-03-02T13:39:36;95370.25;;;25.92;23.52
31595;BME280;18200;48.726;8.892;2024-03-02T13:43:42;95364.91;;;27.10;23.05
31595;BME280;18200;48.726;8.892;2024-03-02T13:47:45;95356.13;;;27.06;22.86
31595;BME280;18200;48.726;8.892;2024-03-02T13:51:45;95365.44;;;27.14;23.21
31595;BME280;18200;48.726;8.892;2024-03-02T13:55:46;95353.44;;;28.39;21.65
31595;BME280;18200;48.726;8.892;2024-03-02T13:59:46;95347.66;;;28.37;21.78
31595;BME280;18200;48.726;8.892;2024-03-02T14:03:47;95347.88;;;28.50;21.41
31595;BME280;18200;48.726;8.892;2024-03-02T14:07:47;95343.72;;;29.82;20.67
31595;BME280;18200;48.726;8.892;2024-03-02T14:11:49;95341.13;;;28.57;21.56
31595;BME280;18200;48.726;8.892;2024-03-02T14:15:50;95334.81;;;28.62;21.39
31595;BME280;18200;48.726;8.892;2024-03-02T14:19:50;95333.84;;;29.52;20.39
31595;BME280;18200;48.726;8.892;2024-03-02T14:23:51;95320.78;;;31.40;18.88
31595;BME280;18200;48.726;8.892;2024-03-02T14:27:51;95335.50;;;29.31;19.96
31595;BME280;18200;48.726;8.892;2024-03-02T14:31:52;95323.50;;;30.41;19.16
31595;BME280;18200;48.726;8.892;2024-03-02T14:35:52;95324.16;;;29.75;20.40
31595;BME280;18200;48.726;8.892;2024-03-02T14:39:52;95315.84;;;29.69;20.03
31595;BME280;18200;48.726;8.892;2024-03-02T14:43:53;95307.06;;;27.93;21.70
31595;BME280;18200;48.726;8.892;2024-03-02T14:47:53;95307.16;;;30.14;19.24
31595;BME280;18200;48.726;8.892;2024-03-02T14:51:54;95299.66;;;28.51;20.95
31595;BME280;18200;48.726;8.892;2024-03-02T14:55:54;95296.28;;;29.27;20.52
31595;BME280;18200;48.726;8.892;2024-03-02T14:59:55;95293.94;;;30.01;19.69
31595;BME280;18200;48.726;8.892;2024-03-02T15:03:55;95288.84;;;30.29;19.46
31595;BME280;18200;48.726;8.892;2024-03-02T15:07:56;95278.00;;;30.55;19.39
31595;BME280;18200;48.726;8.892;2024-03-02T15:11:59;95280.06;;;29.01;20.59
31595;BME280;18200;48.726;8.892;2024-03-02T15:16:00;95272.69;;;27.89;22.02
31595;BME280;18200;48.726;8.892;2024-03-02T15:20:00;95270.44;;;27.98;22.02
31595;BME280;18200;48.726;8.892;2024-03-02T15:24:00;95272.53;;;28.44;21.55
31595;BME280;18200;48.726;8.892;2024-03-02T15:28:01;95266.47;;;28.62;20.97
31595;BME280;18200;48.726;8.892;2024-03-02T15:32:02;95265.13;;;29.21;20.90
31595;BME280;18200;48.726;8.892;2024-03-02T15:36:06;95256.19;;;29.03;20.78
31595;BME280;18200;48.726;8.892;2024-03-02T15:40:07;95244.81;;;29.12;20.99
31595;BME280;18200;48.726;8.892;2024-03-02T15:44:08;95243.41;;;29.36;20.82
31595;BME280;18200;48.726;8.892;2024-03-02T15:48:09;95249.47;;;28.88;21.33
31595;BME280;18200;48.726;8.892;2024-03-02T15:52:09;95242.59;;;27.74;22.90
31595;BME280;18200;48.726;8.892;2024-03-02T15:56:09;95236.56;;;27.98;22.32
31595;BME280;18200;48.726;8.892;2024-03-02T16:00:10;95245.00;;;28.22;22.11
31595;BME280;18200;48.726;8.892;2024-03-02T16:04:13;95253.00;;;28.31;22.06
31595;BME280;18200;48.726;8.892;2024-03-02T16:08:14;95247.50;;;28.20;22.38
31595;BME280;18200;48.726;8.892;2024-03-02T16:12:15;95260.38;;;27.84;23.52
31595;BME280;18200;48.726;8.892;2024-03-02T16:16:15;95258.91;;;27.83;23.72
31595;BME280;18200;48.726;8.892;2024-03-02T16:20:16;95262.91;;;27.82;23.35
31595;BME280;18200;48.726;8.892;2024-03-02T16:24:16;95263.88;;;27.02;24.20
31595;BME280;18200;48.726;8.892;2024-03-02T16:28:17;95260.41;;;27.23;22.44
31595;BME280;18200;48.726;8.892;2024-03-02T16:32:18;95263.97;;;26.54;23.05
31595;BME280;18200;48.726;8.892;2024-03-02T16:36:18;95254.34;;;26.97;22.69
31595;BME280;18200;48.726;8.892;2024-03-02T16:40:19;95257.59;;;26.79;22.62
31595;BME280;18200;48.726;8.892;2024-03-02T16:44:19;95253.81;;;26.12;23.25
31595;BME280;18200;48.726;8.892;2024-03-02T16:48:19;95254.38;;;26.33;23.57
31595;BME280;18200;48.726;8.892;2024-03-02T16:52:20;95250.69;;;25.99;23.57
31595;BME280;18200;48.726;8.892;2024-03-02T16:56:23;95252.50;;;25.65;24.81
31595;BME280;18200;48.726;8.892;2024-03-02T17:00:24;95254.22;;;25.99;23.98
31595;BME280;18200;48.726;8.892;2024-03-02T17:04:24;95251.44;;;25.57;24.14
31595;BME280;18200;48.726;8.892;2024-03-02T17:08:26;95255.75;;;25.64;24.81
31595;BME280;18200;48.726;8.892;2024-03-02T17:12:26;95261.38;;;25.86;23.80
31595;BME280;18200;48.726;8.892;2024-03-02T17:16:27;95251.56;;;25.79;24.68
31595;BME280;18200;48.726;8.892;2024-03-02T17:20:27;95263.19;;;25.58;24.01
31595;BME280;18200;48.726;8.892;2024-03-02T17:24:28;95262.91;;;25.50;24.70
31595;BME280;18200;48.726;8.892;2024-03-02T17:28:28;95261.53;;;25.40;25.35
31595;BME280;18200;48.726;8.892;2024-03-02T17:32:29;95250.84;;;25.42;25.32
31595;BME280;18200;48.726;8.892;2024-03-02T17:36:30;95245.03;;;25.09;26.49
31595;BME280;18200;48.726;8.892;2024-03-02T17:40:31;95245.78;;;24.84;26.92
31595;BME280;18200;48.726;8.892;2024-03-02T17:44:31;95240.84;;;24.88;27.47
31595;BME280;18200;48.726;8.892;2024-03-02T17:48:32;95249.63;;;24.92;28.08
31595;BME280;18200;48.726;8.892;2024-03-02T17:52:32;95259.53;;;24.84;28.54
31595;BME280;18200;48.726;8.892;2024-03-02T17:56:33;95250.38;;;24.46;28.81
31595;BME280;18200;48.726;8.892;2024-03-02T18:00:33;95243.31;;;25.11;28.34
31595;BME280;18200;48.726;8.892;2024-03-02T18:04:33;95249.25;;;24.79;28.64
31595;BME280;18200;48.726;8.892;2024-03-02T18:08:35;95246.50;;;24.58;28.92
31595;BME280;18200;48.726;8.892;2024-03-02T18:12:35;95245.22;;;24.74;29.08
31595;BME280;18200;48.726;8.892;2024-03-02T18:16:35;95236.75;;;24.78;28.93
31595;BME280;18200;48.726;8.892;2024-03-02T18:20:36;95244.56;;;24.85;28.87
31595;BME280;18200;48.726;8.892;2024-03-02T18:24:38;95255.56;;;23.84;31.12
31595;BME280;18200;48.726;8.892;2024-03-02T18:28:38;95240.28;;;23.63;31.85
31595;BME280;18200;48.726;8.892;2024-03-02T18:32:39;95234.81;;;24.38;31.13
31595;BME280;18200;48.726;8.892;2024-03-02T18:36:39;95238.19;;;24.27;31.71
31595;BME280;18200;48.726;8.892;2024-03-02T18:40:39;95227.47;;;24.29;31.99
31595;BME280;18200;48.726;8.892;2024-03-02T18:44:41;95222.81;;;24.35;32.12
31595;BME280;18200;48.726;8.892;2024-03-02T18:48:42;95219.78;;;24.13;32.11
31595;BME280;18200;48.726;8.892;2024-03-02T18:52:44;95214.56;;;24.15;32.30
31595;BME280;18200;48.726;8.892;2024-03-02T18:56:44;95220.00;;;24.30;32.50
31595;BME280;18200;48.726;8.892;2024-03-02T19:00:44;95235.13;;;23.85;33.06
31595;BME280;18200;48.726;8.892;2024-03-02T19:04:45;95227.69;;;24.06;32.82
31595;BME280;18200;48.726;8.892;2024-03-02T19:08:47;95239.09;;;23.84;33.21
31595;BME280;18200;48.726;8.892;2024-03-02T19:12:48;95227.22;;;24.27;32.81
31595;BME280;18200;48.726;8.892;2024-03-02T19:16:49;95221.56;;;24.16;32.94
31595;BME280;18200;48.726;8.892;2024-03-02T19:20:49;95215.94;;;23.85;33.14
31595;BME280;18200;48.726;8.892;2024-03-02T19:24:51;95215.31;;;23.96;33.36
31595;BME280;18200;48.726;8.892;2024-03-02T19:28:51;95216.75;;;23.91;33.14
31595;BME280;18200;48.726;8.892;2024-03-02T19:32:52;95221.53;;;23.76;33.57
31595;BME280;18200;48.726;8.892;2024-03-02T19:36:52;95204.59;;;23.43;34.29
31595;BME280;18200;48.726;8.892;2024-03-02T19:40:54;95213.09;;;23.45;34.22
31595;BME280;18200;48.726;8.892;2024-03-02T19:44:55;95211.13;;;23.31;34.41
31595;BME280;18200;48.726;8.892;2024-03-02T19:48:55;95213.09;;;23.30;34.21
31595;BME280;18200;48.726;8.892;2024-03-02T19:52:56;95206.22;;;23.35;34.29
31595;BME280;18200;48.726;8.892;2024-03-02T19:56:57;95200.00;;;23.20;34.90
31595;BME280;18200;48.726;8.892;2024-03-02T20:00:57;95194.22;;;23.17;34.74
31595;BME280;18200;48.726;8.892;2024-03-02T20:04:58;95195.19;;;23.14;34.41
31595;BME280;18200;48.726;8.892;2024-03-02T20:08:58;95196.50;;;23.04;34.24
31595;BME280;18200;48.726;8.892;2024-03-02T20:12:59;95192.38;;;22.80;34.87
31595;BME280;18200;48.726;8.892;2024-03-02T20:17:00;95192.00;;;23.01;34.62
31595;BME280;18200;48.726;8.892;2024-03-02T20:21:01;95187.56;;;22.75;35.01
31595;BME280;18200;48.726;8.892;2024-03-02T20:25:01;95182.84;;;22.75;34.83
31595;BME280;18200;48.726;8.892;2024-03-02T20:29:02;95175.56;;;22.72;35.10
31595;BME280;18200;48.726;8.892;2024-03-02T20:33:03;95177.06;;;22.44;35.85
31595;BME280;18200;48.726;8.892;2024-03-02T20:37:04;95171.03;;;22.40;35.36
31595;BME280;18200;48.726;8.892;2024-03-02T20:41:04;95168.22;;;22.11;35.13
31595;BME280;18200;48.726;8.892;2024-03-02T20:45:05;95162.84;;;22.02;35.74
31595;BME280;18200;48.726;8.892;2024-03-02T20:49:06;95162.75;;;22.11;35.64
31595;BME280;18200;48.726;8.892;2024-03-02T20:53:07;95153.28;;;21.83;36.20
31595;BME280;18200;48.726;8.892;2024-03-02T20:57:07;95150.09;;;21.99;36.08
31595;BME280;18200;48.726;8.892;2024-03-02T21:01:10;95143.84;;;21.84;35.42
31595;BME280;18200;48.726;8.892;2024-03-02T21:05:11;95146.03;;;21.47;35.76
31595;BME280;18200;48.726;8.892;2024-03-02T21:09:11;95144.53;;;21.13;35.97
31595;BME280;18200;48.726;8.892;2024-03-02T21:13:12;95140.56;;;20.31;37.73
31595;BME280;18200;48.726;8.892;2024-03-02T21:17:12;95147.38;;;20.86;37.42
31595;BME280;18200;48.726;8.892;2024-03-02T21:21:13;95142.75;;;21.01;37.08
31595;BME280;18200;48.726;8.892;2024-03-02T21:25:13;95147.50;;;20.41;37.39
31595;BME280;18200;48.726;8.892;2024-03-02T21:29:16;95153.25;;;20.34;38.06